sensor_id;sensor_type;location;lat;lon;timestamp;P1;durP1;ratioP1;P2;durP2;ratioP2
13708;SDS011;54933;51.908;7.730;2023-07-31T00:00:57;0.30;;;0.30;;
13708;SDS011;54933;51.908;7.730;2023-07-31T00:03:23;0.30;;;0.30;;
13708;SDS011;54933;51.908;7.730;2023-07-31T00:05:48;0.30;;;0.30;;
13708;SDS011;54933;51.908;7.730;2023-07-31T00:08:13;0.60;;;0.53;;
13708;SDS011;54933;51.908;7.730;2023-07-31T00:10:38;0.40;;;0.40;;
13708;SDS011;54933;51.908;7.730;2023-07-31T00:13:04;0.40;;;0.40;;
13708;SDS011;54933;51.908;7.730;2023-07-31T00:15:29;0.40;;;0.40;;
13708;SDS011;54933;51.908;7.730;2023-07-31T00:17:54;0.27;;;0.27;;
13708;SDS011;54933;51.908;7.730;2023-07-31T00:20:20;0.40;;;0.40;;
13708;SDS011;54933;51.908;7.730;2023-07-31T00:22:45;0.40;;;0.40;;
13708;SDS011;54933;51.908;7.730;2023-07-31T00:25:10;0.37;;;0.37;;
13708;SDS011;54933;51.908;7.730;2023-07-31T00:27:35;0.30;;;0.30;;
13708;SDS011;54933;51.908;7.730;2023-07-31T00:30:01;0.40;;;0.40;;
13708;SDS011;54933;51.908;7.730;2023-07-31T00:32:26;0.40;;;0.40;;
13708;SDS011;54933;51.908;7.730;2023-07-31T00:34:51;0.40;;;0.40;;
13708;SDS011;54933;51.908;7.730;2023-07-31T00:37:16;0.50;;;0.50;;
13708;SDS011;54933;51.908;7.730;2023-07-31T00:39:42;0.40;;;0.40;;
13708;SDS011;54933;51.908;7.730;2023-07-31T00:42:07;0.43;;;0.43;;
13708;SDS011;54933;51.908;7.730;2023-07-31T00:44:32;0.40;;;0.40;;
13708;SDS011;54933;51.908;7.730;2023-07-31T00:46:58;0.40;;;0.40;;
13708;SDS011;54933;51.908;7.730;2023-07-31T00:49:24;0.40;;;0.40;;
13708;SDS011;54933;51.908;7.730;2023-07-31T00:51:50;0.30;;;0.30;;
13708;SDS011;54933;51.908;7.730;2023-07-31T00:54:16;0.20;;;0.20;;
13708;SDS011;54933;51.908;7.730;2023-07-31T00:56:41;0.63;;;0.60;;
13708;SDS011;54933;51.908;7.730;2023-07-31T00:59:09;0.40;;;0.40;;
13708;SDS011;54933;51.908;7.730;2023-07-31T01:01:35;0.47;;;0.47;;
13708;SDS011;54933;51.908;7.730;2023-07-31T01:04:00;0.50;;;0.50;;
13708;SDS011;54933;51.908;7.730;2023-07-31T01:06:31;0.30;;;0.30;;
13708;SDS011;54933;51.908;7.730;2023-07-31T01:09:11;0.33;;;0.33;;
13708;SDS011;54933;51.908;7.730;2023-07-31T01:11:56;0.40;;;0.40;;
13708;SDS011;54933;51.908;7.730;2023-07-31T01:14:22;0.40;;;0.40;;
13708;SDS011;54933;51.908;7.730;2023-07-31T01:16:47;0.40;;;0.40;;
13708;SDS011;54933;51.908;7.730;2023-07-31T01:19:14;0.40;;;0.40;;
13708;SDS011;54933;51.908;7.730;2023-07-31T01:24:49;0.33;;;0.33;;
13708;SDS011;54933;51.908;7.730;2023-07-31T01:27:21;0.60;;;0.43;;
13708;SDS011;54933;51.908;7.730;2023-07-31T01:29:53;0.40;;;0.40;;
13708;SDS011;54933;51.908;7.730;2023-07-31T01:32:29;0.30;;;0.30;;
13708;SDS011;54933;51.908;7.730;2023-07-31T01:34:54;0.40;;;0.40;;
13708;SDS011;54933;51.908;7.730;2023-07-31T01:37:21;0.30;;;0.30;;
13708;SDS011;54933;51.908;7.730;2023-07-31T01:39:47;0.33;;;0.33;;
13708;SDS011;54933;51.908;7.730;2023-07-31T01:42:12;1.03;;;0.50;;
13708;SDS011;54933;51.908;7.730;2023-07-31T01:44:37;0.50;;;0.50;;
13708;SDS011;54933;51.908;7.730;2023-07-31T01:47:02;0.70;;;0.67;;
13708;SDS011;54933;51.908;7.730;2023-07-31T01:49:28;0.47;;;0.47;;
13708;SDS011;54933;51.908;7.730;2023-07-31T01:51:53;0.40;;;0.40;;
13708;SDS011;54933;51.908;7.730;2023-07-31T01:54:18;0.20;;;0.20;;
13708;SDS011;54933;51.908;7.730;2023-07-31T01:56:43;0.40;;;0.40;;
13708;SDS011;54933;51.908;7.730;2023-07-31T01:59:09;0.37;;;0.37;;
13708;SDS011;54933;51.908;7.730;2023-07-31T02:01:34;0.63;;;0.40;;
13708;SDS011;54933;51.908;7.730;2023-07-31T02:03:59;0.50;;;0.50;;
13708;SDS011;54933;51.908;7.730;2023-07-31T02:06:24;0.60;;;0.50;;
13708;SDS011;54933;51.908;7.730;2023-07-31T02:08:50;0.50;;;0.50;;
13708;SDS011;54933;51.908;7.730;2023-07-31T02:11:15;0.50;;;0.40;;
13708;SDS011;54933;51.908;7.730;2023-07-31T02:13:40;0.40;;;0.40;;
13708;SDS011;54933;51.908;7.730;2023-07-31T02:16:06;0.33;;;0.33;;
13708;SDS011;54933;51.908;7.730;2023-07-31T02:18:31;0.40;;;0.40;;
13708;SDS011;54933;51.908;7.730;2023-07-31T02:20:56;0.60;;;0.60;;
13708;SDS011;54933;51.908;7.730;2023-07-31T02:23:21;0.43;;;0.43;;
13708;SDS011;54933;51.908;7.730;2023-07-31T02:25:47;0.63;;;0.47;;
13708;SDS011;54933;51.908;7.730;2023-07-31T02:28:12;0.50;;;0.43;;
13708;SDS011;54933;51.908;7.730;2023-07-31T02:30:38;0.60;;;0.60;;
13708;SDS011;54933;51.908;7.730;2023-07-31T02:33:03;0.50;;;0.50;;
13708;SDS011;54933;51.908;7.730;2023-07-31T02:35:30;0.93;;;0.50;;
13708;SDS011;54933;51.908;7.730;2023-07-31T02:37:55;0.40;;;0.40;;
13708;SDS011;54933;51.908;7.730;2023-07-31T02:40:20;0.63;;;0.57;;
13708;SDS011;54933;51.908;7.730;2023-07-31T02:42:46;0.50;;;0.50;;
13708;SDS011;54933;51.908;7.730;2023-07-31T02:45:11;0.60;;;0.50;;
13708;SDS011;54933;51.908;7.730;2023-07-31T02:47:36;0.57;;;0.50;;
13708;SDS011;54933;51.908;7.730;2023-07-31T02:50:05;0.50;;;0.50;;
13708;SDS011;54933;51.908;7.730;2023-07-31T02:52:30;0.43;;;0.40;;
13708;SDS011;54933;51.908;7.730;2023-07-31T02:54:56;0.50;;;0.30;;
13708;SDS011;54933;51.908;7.730;2023-07-31T02:57:22;0.40;;;0.40;;
13708;SDS011;54933;51.908;7.730;2023-07-31T02:59:47;0.40;;;0.40;;
13708;SDS011;54933;51.908;7.730;2023-07-31T03:02:12;0.67;;;0.50;;
13708;SDS011;54933;51.908;7.730;2023-07-31T03:04:39;0.40;;;0.40;;
13708;SDS011;54933;51.908;7.730;2023-07-31T03:07:04;0.70;;;0.70;;
13708;SDS011;54933;51.908;7.730;2023-07-31T03:09:30;0.60;;;0.60;;
13708;SDS011;54933;51.908;7.730;2023-07-31T03:11:55;0.40;;;0.40;;
13708;SDS011;54933;51.908;7.730;2023-07-31T03:14:20;0.60;;;0.60;;
13708;SDS011;54933;51.908;7.730;2023-07-31T03:16:46;0.50;;;0.50;;
13708;SDS011;54933;51.908;7.730;2023-07-31T03:19:11;0.30;;;0.30;;
13708;SDS011;54933;51.908;7.730;2023-07-31T03:21:36;0.40;;;0.40;;
13708;SDS011;54933;51.908;7.730;2023-07-31T03:24:01;0.40;;;0.40;;
13708;SDS011;54933;51.908;7.730;2023-07-31T03:26:27;0.70;;;0.70;;
13708;SDS011;54933;51.908;7.730;2023-07-31T03:28:52;0.53;;;0.53;;
13708;SDS011;54933;51.908;7.730;2023-07-31T03:31:17;1.40;;;0.47;;
13708;SDS011;54933;51.908;7.730;2023-07-31T03:33:43;0.70;;;0.70;;
13708;SDS011;54933;51.908;7.730;2023-07-31T03:36:08;0.40;;;0.40;;
13708;SDS011;54933;51.908;7.730;2023-07-31T03:38:34;0.70;;;0.67;;
13708;SDS011;54933;51.908;7.730;2023-07-31T03:40:59;0.60;;;0.60;;
13708;SDS011;54933;51.908;7.730;2023-07-31T03:43:25;0.50;;;0.50;;
13708;SDS011;54933;51.908;7.730;2023-07-31T03:45:50;0.50;;;0.50;;
13708;SDS011;54933;51.908;7.730;2023-07-31T03:48:15;0.50;;;0.50;;
13708;SDS011;54933;51.908;7.730;2023-07-31T03:50:41;0.60;;;0.60;;
13708;SDS011;54933;51.908;7.730;2023-07-31T03:53:06;0.50;;;0.50;;
13708;SDS011;54933;51.908;7.730;2023-07-31T03:55:32;0.60;;;0.60;;
13708;SDS011;54933;51.908;7.730;2023-07-31T03:57:57;0.47;;;0.47;;
13708;SDS011;54933;51.908;7.730;2023-07-31T04:00:22;0.60;;;0.60;;
13708;SDS011;54933;51.908;7.730;2023-07-31T04:02:48;0.60;;;0.60;;
13708;SDS011;54933;51.908;7.730;2023-07-31T04:05:13;0.70;;;0.70;;
13708;SDS011;54933;51.908;7.730;2023-07-31T04:07:38;0.70;;;0.70;;
13708;SDS011;54933;51.908;7.730;2023-07-31T04:10:03;0.37;;;0.37;;
13708;SDS011;54933;51.908;7.730;2023-07-31T04:12:29;0.60;;;0.60;;
13708;SDS011;54933;51.908;7.730;2023-07-31T04:14:54;0.60;;;0.60;;
13708;SDS011;54933;51.908;7.730;2023-07-31T04:17:20;0.63;;;0.57;;
13708;SDS011;54933;51.908;7.730;2023-07-31T04:19:45;0.50;;;0.50;;
13708;SDS011;54933;51.908;7.730;2023-07-31T04:22:10;0.50;;;0.50;;
13708;SDS011;54933;51.908;7.730;2023-07-31T04:24:36;0.60;;;0.60;;
13708;SDS011;54933;51.908;7.730;2023-07-31T04:27:01;0.67;;;0.67;;
13708;SDS011;54933;51.908;7.730;2023-07-31T04:29:26;0.73;;;0.70;;
13708;SDS011;54933;51.908;7.730;2023-07-31T04:31:51;0.50;;;0.50;;
13708;SDS011;54933;51.908;7.730;2023-07-31T04:34:17;0.60;;;0.60;;
13708;SDS011;54933;51.908;7.730;2023-07-31T04:36:42;0.70;;;0.70;;
13708;SDS011;54933;51.908;7.730;2023-07-31T04:39:07;0.40;;;0.40;;
13708;SDS011;54933;51.908;7.730;2023-07-31T04:41:33;0.60;;;0.60;;
13708;SDS011;54933;51.908;7.730;2023-07-31T04:43:58;0.50;;;0.50;;
13708;SDS011;54933;51.908;7.730;2023-07-31T04:46:23;0.60;;;0.60;;
13708;SDS011;54933;51.908;7.730;2023-07-31T04:48:48;0.40;;;0.40;;
13708;SDS011;54933;51.908;7.730;2023-07-31T04:51:14;0.63;;;0.63;;
13708;SDS011;54933;51.908;7.730;2023-07-31T04:53:39;0.70;;;0.70;;
13708;SDS011;54933;51.908;7.730;2023-07-31T04:56:04;0.70;;;0.70;;
13708;SDS011;54933;51.908;7.730;2023-07-31T04:58:30;0.67;;;0.67;;
13708;SDS011;54933;51.908;7.730;2023-07-31T05:00:55;0.63;;;0.63;;
13708;SDS011;54933;51.908;7.730;2023-07-31T05:03:20;0.70;;;0.70;;
13708;SDS011;54933;51.908;7.730;2023-07-31T05:05:47;0.60;;;0.60;;
13708;SDS011;54933;51.908;7.730;2023-07-31T05:08:12;0.80;;;0.80;;
13708;SDS011;54933;51.908;7.730;2023-07-31T05:10:37;0.63;;;0.60;;
13708;SDS011;54933;51.908;7.730;2023-07-31T05:13:03;0.90;;;0.90;;
13708;SDS011;54933;51.908;7.730;2023-07-31T05:15:28;0.70;;;0.70;;
13708;SDS011;54933;51.908;7.730;2023-07-31T05:17:53;0.70;;;0.70;;
13708;SDS011;54933;51.908;7.730;2023-07-31T05:20:19;0.60;;;0.60;;
13708;SDS011;54933;51.908;7.730;2023-07-31T05:22:44;0.60;;;0.60;;
13708;SDS011;54933;51.908;7.730;2023-07-31T05:25:09;0.60;;;0.60;;
13708;SDS011;54933;51.908;7.730;2023-07-31T05:27:34;0.80;;;0.80;;
13708;SDS011;54933;51.908;7.730;2023-07-31T05:30:00;0.70;;;0.70;;
13708;SDS011;54933;51.908;7.730;2023-07-31T05:32:25;0.70;;;0.70;;
13708;SDS011;54933;51.908;7.730;2023-07-31T05:34:51;0.63;;;0.60;;
13708;SDS011;54933;51.908;7.730;2023-07-31T05:37:17;0.83;;;0.83;;
13708;SDS011;54933;51.908;7.730;2023-07-31T05:39:42;0.70;;;0.70;;
13708;SDS011;54933;51.908;7.730;2023-07-31T05:42:07;0.93;;;0.80;;
13708;SDS011;54933;51.908;7.730;2023-07-31T05:44:33;0.70;;;0.70;;
13708;SDS011;54933;51.908;7.730;2023-07-31T05:46:58;0.87;;;0.80;;
13708;SDS011;54933;51.908;7.730;2023-07-31T05:49:24;0.60;;;0.60;;
13708;SDS011;54933;51.908;7.730;2023-07-31T05:51:49;0.70;;;0.70;;
13708;SDS011;54933;51.908;7.730;2023-07-31T05:54:14;0.70;;;0.70;;
13708;SDS011;54933;51.908;7.730;2023-07-31T05:56:39;0.90;;;0.90;;
13708;SDS011;54933;51.908;7.730;2023-07-31T05:59:05;0.70;;;0.70;;
13708;SDS011;54933;51.908;7.730;2023-07-31T06:01:30;0.60;;;0.60;;
13708;SDS011;54933;51.908;7.730;2023-07-31T06:03:55;0.80;;;0.80;;
13708;SDS011;54933;51.908;7.730;2023-07-31T06:06:20;0.67;;;0.60;;
13708;SDS011;54933;51.908;7.730;2023-07-31T06:08:46;0.70;;;0.70;;
13708;SDS011;54933;51.908;7.730;2023-07-31T06:11:11;0.70;;;0.70;;
13708;SDS011;54933;51.908;7.730;2023-07-31T06:13:36;0.80;;;0.80;;
13708;SDS011;54933;51.908;7.730;2023-07-31T06:16:01;0.80;;;0.80;;
13708;SDS011;54933;51.908;7.730;2023-07-31T06:18:30;1.00;;;1.00;;
13708;SDS011;54933;51.908;7.730;2023-07-31T06:20:56;0.90;;;0.90;;
13708;SDS011;54933;51.908;7.730;2023-07-31T06:23:21;0.90;;;0.90;;
13708;SDS011;54933;51.908;7.730;2023-07-31T06:25:47;0.73;;;0.73;;
13708;SDS011;54933;51.908;7.730;2023-07-31T06:28:12;1.03;;;1.03;;
13708;SDS011;54933;51.908;7.730;2023-07-31T06:30:37;0.90;;;0.90;;
13708;SDS011;54933;51.908;7.730;2023-07-31T06:33:02;0.60;;;0.60;;
13708;SDS011;54933;51.908;7.730;2023-07-31T06:35:28;1.27;;;1.17;;
13708;SDS011;54933;51.908;7.730;2023-07-31T06:37:53;0.73;;;0.73;;
13708;SDS011;54933;51.908;7.730;2023-07-31T06:40:18;0.90;;;0.90;;
13708;SDS011;54933;51.908;7.730;2023-07-31T06:42:44;0.80;;;0.80;;
13708;SDS011;54933;51.908;7.730;2023-07-31T06:45:10;0.60;;;0.60;;
13708;SDS011;54933;51.908;7.730;2023-07-31T06:47:35;0.97;;;0.93;;
13708;SDS011;54933;51.908;7.730;2023-07-31T06:50:01;0.87;;;0.87;;
13708;SDS011;54933;51.908;7.730;2023-07-31T06:52:28;0.80;;;0.80;;
13708;SDS011;54933;51.908;7.730;2023-07-31T06:55:00;0.70;;;0.70;;
13708;SDS011;54933;51.908;7.730;2023-07-31T06:57:27;0.70;;;0.70;;
13708;SDS011;54933;51.908;7.730;2023-07-31T06:59:52;0.80;;;0.80;;
13708;SDS011;54933;51.908;7.730;2023-07-31T07:02:18;1.03;;;1.00;;
13708;SDS011;54933;51.908;7.730;2023-07-31T07:04:43;0.80;;;0.80;;
13708;SDS011;54933;51.908;7.730;2023-07-31T07:07:08;0.70;;;0.70;;
13708;SDS011;54933;51.908;7.730;2023-07-31T07:09:33;2.73;;;0.80;;
13708;SDS011;54933;51.908;7.730;2023-07-31T07:11:59;0.67;;;0.67;;
13708;SDS011;54933;51.908;7.730;2023-07-31T07:14:24;0.80;;;0.80;;
13708;SDS011;54933;51.908;7.730;2023-07-31T07:16:52;0.70;;;0.70;;
13708;SDS011;54933;51.908;7.730;2023-07-31T07:19:17;0.80;;;0.80;;
13708;SDS011;54933;51.908;7.730;2023-07-31T07:21:43;1.27;;;0.73;;
13708;SDS011;54933;51.908;7.730;2023-07-31T07:24:08;0.93;;;0.93;;
13708;SDS011;54933;51.908;7.730;2023-07-31T07:26:33;0.93;;;0.93;;
13708;SDS011;54933;51.908;7.730;2023-07-31T07:28:58;0.83;;;0.83;;
13708;SDS011;54933;51.908;7.730;2023-07-31T07:31:26;0.80;;;0.80;;
13708;SDS011;54933;51.908;7.730;2023-07-31T07:33:52;0.97;;;0.93;;
13708;SDS011;54933;51.908;7.730;2023-07-31T07:36:17;0.93;;;0.90;;
13708;SDS011;54933;51.908;7.730;2023-07-31T07:38:42;1.03;;;1.03;;
13708;SDS011;54933;51.908;7.730;2023-07-31T07:41:07;0.90;;;0.90;;
13708;SDS011;54933;51.908;7.730;2023-07-31T07:43:33;1.00;;;0.80;;
13708;SDS011;54933;51.908;7.730;2023-07-31T07:45:58;0.80;;;0.80;;
13708;SDS011;54933;51.908;7.730;2023-07-31T07:48:23;0.80;;;0.80;;
13708;SDS011;54933;51.908;7.730;2023-07-31T07:50:50;0.90;;;0.90;;
13708;SDS011;54933;51.908;7.730;2023-07-31T07:53:15;0.87;;;0.87;;
13708;SDS011;54933;51.908;7.730;2023-07-31T07:55:40;1.00;;;1.00;;
13708;SDS011;54933;51.908;7.730;2023-07-31T07:58:06;0.77;;;0.77;;
13708;SDS011;54933;51.908;7.730;2023-07-31T08:00:31;0.90;;;0.90;;
13708;SDS011;54933;51.908;7.730;2023-07-31T08:02:56;0.83;;;0.83;;
13708;SDS011;54933;51.908;7.730;2023-07-31T08:05:23;1.10;;;1.10;;
13708;SDS011;54933;51.908;7.730;2023-07-31T08:07:48;0.83;;;0.83;;
13708;SDS011;54933;51.908;7.730;2023-07-31T08:10:13;0.87;;;0.87;;
13708;SDS011;54933;51.908;7.730;2023-07-31T08:12:39;0.87;;;0.87;;
13708;SDS011;54933;51.908;7.730;2023-07-31T08:15:04;0.90;;;0.80;;
13708;SDS011;54933;51.908;7.730;2023-07-31T08:17:30;1.10;;;1.10;;
13708;SDS011;54933;51.908;7.730;2023-07-31T08:19:55;0.87;;;0.87;;
13708;SDS011;54933;51.908;7.730;2023-07-31T08:22:23;0.90;;;0.90;;
13708;SDS011;54933;51.908;7.730;2023-07-31T08:24:48;1.13;;;1.03;;
13708;SDS011;54933;51.908;7.730;2023-07-31T08:27:13;1.00;;;1.00;;
13708;SDS011;54933;51.908;7.730;2023-07-31T08:29:39;1.00;;;1.00;;
13708;SDS011;54933;51.908;7.730;2023-07-31T08:32:04;0.93;;;0.87;;
13708;SDS011;54933;51.908;7.730;2023-07-31T08:34:30;1.27;;;1.20;;
13708;SDS011;54933;51.908;7.730;2023-07-31T08:36:55;0.63;;;0.63;;
13708;SDS011;54933;51.908;7.730;2023-07-31T08:39:20;0.97;;;0.80;;
13708;SDS011;54933;51.908;7.730;2023-07-31T08:41:45;0.83;;;0.83;;
13708;SDS011;54933;51.908;7.730;2023-07-31T08:44:10;1.60;;;0.97;;
13708;SDS011;54933;51.908;7.730;2023-07-31T08:46:37;0.70;;;0.70;;
13708;SDS011;54933;51.908;7.730;2023-07-31T08:49:06;1.00;;;1.00;;
13708;SDS011;54933;51.908;7.730;2023-07-31T08:51:33;2.10;;;1.00;;
13708;SDS011;54933;51.908;7.730;2023-07-31T08:54:00;0.80;;;0.80;;
13708;SDS011;54933;51.908;7.730;2023-07-31T08:56:25;0.90;;;0.90;;
13708;SDS011;54933;51.908;7.730;2023-07-31T08:58:51;0.80;;;0.80;;
13708;SDS011;54933;51.908;7.730;2023-07-31T09:01:18;0.80;;;0.80;;
13708;SDS011;54933;51.908;7.730;2023-07-31T09:03:44;0.90;;;0.80;;
13708;SDS011;54933;51.908;7.730;2023-07-31T09:06:11;0.90;;;0.90;;
13708;SDS011;54933;51.908;7.730;2023-07-31T09:08:38;0.90;;;0.90;;
13708;SDS011;54933;51.908;7.730;2023-07-31T09:11:07;0.80;;;0.80;;
13708;SDS011;54933;51.908;7.730;2023-07-31T09:13:32;0.63;;;0.63;;
13708;SDS011;54933;51.908;7.730;2023-07-31T09:15:58;1.03;;;0.90;;
13708;SDS011;54933;51.908;7.730;2023-07-31T09:18:24;0.63;;;0.63;;
13708;SDS011;54933;51.908;7.730;2023-07-31T09:21:02;1.33;;;0.80;;
13708;SDS011;54933;51.908;7.730;2023-07-31T09:23:39;0.80;;;0.80;;
13708;SDS011;54933;51.908;7.730;2023-07-31T09:26:09;1.33;;;0.73;;
13708;SDS011;54933;51.908;7.730;2023-07-31T09:28:35;0.70;;;0.70;;
13708;SDS011;54933;51.908;7.730;2023-07-31T09:31:00;1.00;;;1.00;;
13708;SDS011;54933;51.908;7.730;2023-07-31T09:33:26;1.00;;;1.00;;
13708;SDS011;54933;51.908;7.730;2023-07-31T09:35:51;0.70;;;0.70;;
13708;SDS011;54933;51.908;7.730;2023-07-31T09:38:16;0.70;;;0.70;;
13708;SDS011;54933;51.908;7.730;2023-07-31T09:40:43;0.80;;;0.80;;
13708;SDS011;54933;51.908;7.730;2023-07-31T09:43:10;1.23;;;0.97;;
13708;SDS011;54933;51.908;7.730;2023-07-31T09:45:39;0.83;;;0.83;;
13708;SDS011;54933;51.908;7.730;2023-07-31T09:48:16;1.13;;;0.87;;
13708;SDS011;54933;51.908;7.730;2023-07-31T09:50:43;0.60;;;0.60;;
13708;SDS011;54933;51.908;7.730;2023-07-31T09:53:10;0.73;;;0.73;;
13708;SDS011;54933;51.908;7.730;2023-07-31T09:55:36;0.70;;;0.70;;
13708;SDS011;54933;51.908;7.730;2023-07-31T09:58:03;0.73;;;0.73;;
13708;SDS011;54933;51.908;7.730;2023-07-31T10:00:34;0.77;;;0.77;;
13708;SDS011;54933;51.908;7.730;2023-07-31T10:03:00;0.63;;;0.63;;
13708;SDS011;54933;51.908;7.730;2023-07-31T10:05:30;0.60;;;0.60;;
13708;SDS011;54933;51.908;7.730;2023-07-31T10:07:58;1.03;;;0.70;;
13708;SDS011;54933;51.908;7.730;2023-07-31T10:10:24;0.80;;;0.80;;
13708;SDS011;54933;51.908;7.730;2023-07-31T10:12:51;0.80;;;0.80;;
13708;SDS011;54933;51.908;7.730;2023-07-31T10:15:18;0.60;;;0.60;;
13708;SDS011;54933;51.908;7.730;2023-07-31T10:17:46;0.83;;;0.83;;
13708;SDS011;54933;51.908;7.730;2023-07-31T10:20:13;0.70;;;0.70;;
13708;SDS011;54933;51.908;7.730;2023-07-31T10:22:41;0.70;;;0.70;;
13708;SDS011;54933;51.908;7.730;2023-07-31T10:25:07;0.80;;;0.80;;
13708;SDS011;54933;51.908;7.730;2023-07-31T10:27:34;0.70;;;0.70;;
13708;SDS011;54933;51.908;7.730;2023-07-31T10:30:02;0.73;;;0.73;;
13708;SDS011;54933;51.908;7.730;2023-07-31T10:32:30;0.67;;;0.67;;
13708;SDS011;54933;51.908;7.730;2023-07-31T10:34:55;0.70;;;0.70;;
13708;SDS011;54933;51.908;7.730;2023-07-31T10:37:28;0.70;;;0.70;;
13708;SDS011;54933;51.908;7.730;2023-07-31T10:40:01;0.67;;;0.67;;
13708;SDS011;54933;51.908;7.730;2023-07-31T10:42:32;0.67;;;0.67;;
13708;SDS011;54933;51.908;7.730;2023-07-31T10:45:00;0.90;;;0.90;;
13708;SDS011;54933;51.908;7.730;2023-07-31T10:48:17;0.80;;;0.80;;
13708;SDS011;54933;51.908;7.730;2023-07-31T10:50:51;0.83;;;0.83;;
13708;SDS011;54933;51.908;7.730;2023-07-31T10:53:38;0.73;;;0.73;;
13708;SDS011;54933;51.908;7.730;2023-07-31T10:56:07;0.80;;;0.80;;
13708;SDS011;54933;51.908;7.730;2023-07-31T10:58:34;0.70;;;0.70;;
13708;SDS011;54933;51.908;7.730;2023-07-31T11:01:05;0.90;;;0.90;;
13708;SDS011;54933;51.908;7.730;2023-07-31T11:03:56;0.70;;;0.70;;
13708;SDS011;54933;51.908;7.730;2023-07-31T11:06:17;0.70;;;0.70;;
13708;SDS011;54933;51.908;7.730;2023-07-31T11:08:44;0.60;;;0.60;;
13708;SDS011;54933;51.908;7.730;2023-07-31T11:11:11;0.70;;;0.70;;
13708;SDS011;54933;51.908;7.730;2023-07-31T11:13:41;0.40;;;0.40;;
13708;SDS011;54933;51.908;7.730;2023-07-31T11:16:14;0.80;;;0.80;;
13708;SDS011;54933;51.908;7.730;2023-07-31T11:18:44;0.90;;;0.90;;
13708;SDS011;54933;51.908;7.730;2023-07-31T11:21:14;0.77;;;0.77;;
13708;SDS011;54933;51.908;7.730;2023-07-31T11:23:47;0.70;;;0.70;;
13708;SDS011;54933;51.908;7.730;2023-07-31T11:26:14;0.53;;;0.53;;
13708;SDS011;54933;51.908;7.730;2023-07-31T11:28:40;0.60;;;0.60;;
13708;SDS011;54933;51.908;7.730;2023-07-31T11:31:08;0.60;;;0.60;;
13708;SDS011;54933;51.908;7.730;2023-07-31T11:33:34;0.50;;;0.50;;
13708;SDS011;54933;51.908;7.730;2023-07-31T11:35:59;0.50;;;0.50;;
13708;SDS011;54933;51.908;7.730;2023-07-31T11:38:31;0.80;;;0.80;;
13708;SDS011;54933;51.908;7.730;2023-07-31T11:40:58;0.50;;;0.50;;
13708;SDS011;54933;51.908;7.730;2023-07-31T11:43:29;0.77;;;0.77;;
13708;SDS011;54933;51.908;7.730;2023-07-31T11:45:58;0.50;;;0.50;;
13708;SDS011;54933;51.908;7.730;2023-07-31T11:50:52;0.50;;;0.50;;
13708;SDS011;54933;51.908;7.730;2023-07-31T11:53:20;0.50;;;0.50;;
13708;SDS011;54933;51.908;7.730;2023-07-31T11:55:49;0.50;;;0.50;;
13708;SDS011;54933;51.908;7.730;2023-07-31T11:58:15;0.60;;;0.60;;
13708;SDS011;54933;51.908;7.730;2023-07-31T12:00:41;0.50;;;0.50;;
13708;SDS011;54933;51.908;7.730;2023-07-31T12:03:07;0.60;;;0.60;;
13708;SDS011;54933;51.908;7.730;2023-07-31T12:05:32;0.50;;;0.50;;
13708;SDS011;54933;51.908;7.730;2023-07-31T12:07:58;0.50;;;0.50;;
13708;SDS011;54933;51.908;7.730;2023-07-31T12:10:30;0.70;;;0.70;;
13708;SDS011;54933;51.908;7.730;2023-07-31T12:13:00;0.37;;;0.37;;
13708;SDS011;54933;51.908;7.730;2023-07-31T12:18:09;0.80;;;0.80;;
13708;SDS011;54933;51.908;7.730;2023-07-31T12:20:39;0.57;;;0.57;;
13708;SDS011;54933;51.908;7.730;2023-07-31T12:23:06;0.73;;;0.73;;
13708;SDS011;54933;51.908;7.730;2023-07-31T12:25:32;0.70;;;0.70;;
13708;SDS011;54933;51.908;7.730;2023-07-31T12:28:03;0.50;;;0.50;;
13708;SDS011;54933;51.908;7.730;2023-07-31T12:30:31;0.50;;;0.50;;
13708;SDS011;54933;51.908;7.730;2023-07-31T12:33:02;0.53;;;0.53;;
13708;SDS011;54933;51.908;7.730;2023-07-31T12:35:34;0.60;;;0.60;;
13708;SDS011;54933;51.908;7.730;2023-07-31T12:38:01;0.50;;;0.50;;
13708;SDS011;54933;51.908;7.730;2023-07-31T12:40:27;0.60;;;0.60;;
13708;SDS011;54933;51.908;7.730;2023-07-31T12:42:52;0.57;;;0.57;;
13708;SDS011;54933;51.908;7.730;2023-07-31T12:45:18;0.60;;;0.60;;
13708;SDS011;54933;51.908;7.730;2023-07-31T12:47:43;0.60;;;0.60;;
13708;SDS011;54933;51.908;7.730;2023-07-31T12:50:08;0.40;;;0.40;;
13708;SDS011;54933;51.908;7.730;2023-07-31T12:52:34;0.57;;;0.57;;
13708;SDS011;54933;51.908;7.730;2023-07-31T12:54:59;0.60;;;0.60;;
13708;SDS011;54933;51.908;7.730;2023-07-31T12:57:24;0.60;;;0.60;;
13708;SDS011;54933;51.908;7.730;2023-07-31T12:59:50;0.50;;;0.50;;
13708;SDS011;54933;51.908;7.730;2023-07-31T13:02:15;0.60;;;0.60;;
13708;SDS011;54933;51.908;7.730;2023-07-31T13:04:40;0.57;;;0.57;;
13708;SDS011;54933;51.908;7.730;2023-07-31T13:07:05;0.53;;;0.53;;
13708;SDS011;54933;51.908;7.730;2023-07-31T13:09:31;0.60;;;0.60;;
13708;SDS011;54933;51.908;7.730;2023-07-31T13:11:56;0.60;;;0.60;;
13708;SDS011;54933;51.908;7.730;2023-07-31T13:14:21;0.70;;;0.70;;
13708;SDS011;54933;51.908;7.730;2023-07-31T13:16:47;0.60;;;0.60;;
13708;SDS011;54933;51.908;7.730;2023-07-31T13:19:12;0.60;;;0.60;;
13708;SDS011;54933;51.908;7.730;2023-07-31T13:21:37;0.50;;;0.50;;
13708;SDS011;54933;51.908;7.730;2023-07-31T13:24:03;0.53;;;0.53;;
13708;SDS011;54933;51.908;7.730;2023-07-31T13:26:29;0.50;;;0.50;;
13708;SDS011;54933;51.908;7.730;2023-07-31T13:28:54;0.57;;;0.57;;
13708;SDS011;54933;51.908;7.730;2023-07-31T13:31:20;0.67;;;0.67;;
13708;SDS011;54933;51.908;7.730;2023-07-31T13:33:45;0.70;;;0.70;;
13708;SDS011;54933;51.908;7.730;2023-07-31T13:36:10;0.70;;;0.70;;
13708;SDS011;54933;51.908;7.730;2023-07-31T13:38:36;0.57;;;0.57;;
13708;SDS011;54933;51.908;7.730;2023-07-31T13:41:02;0.50;;;0.50;;
13708;SDS011;54933;51.908;7.730;2023-07-31T13:43:27;0.60;;;0.60;;
13708;SDS011;54933;51.908;7.730;2023-07-31T13:45:52;0.70;;;0.70;;
13708;SDS011;54933;51.908;7.730;2023-07-31T13:48:17;0.70;;;0.70;;
13708;SDS011;54933;51.908;7.730;2023-07-31T13:50:43;0.60;;;0.60;;
13708;SDS011;54933;51.908;7.730;2023-07-31T13:53:08;0.50;;;0.50;;
13708;SDS011;54933;51.908;7.730;2023-07-31T13:55:33;0.60;;;0.60;;
13708;SDS011;54933;51.908;7.730;2023-07-31T13:57:59;0.40;;;0.40;;
13708;SDS011;54933;51.908;7.730;2023-07-31T14:00:24;0.50;;;0.50;;
13708;SDS011;54933;51.908;7.730;2023-07-31T14:02:49;0.60;;;0.60;;
13708;SDS011;54933;51.908;7.730;2023-07-31T14:05:15;0.60;;;0.60;;
13708;SDS011;54933;51.908;7.730;2023-07-31T14:07:40;0.60;;;0.60;;
13708;SDS011;54933;51.908;7.730;2023-07-31T14:10:05;0.70;;;0.70;;
13708;SDS011;54933;51.908;7.730;2023-07-31T14:12:31;0.50;;;0.50;;
13708;SDS011;54933;51.908;7.730;2023-07-31T14:14:56;0.60;;;0.60;;
13708;SDS011;54933;51.908;7.730;2023-07-31T14:17:22;0.60;;;0.60;;
13708;SDS011;54933;51.908;7.730;2023-07-31T14:19:47;0.43;;;0.43;;
13708;SDS011;54933;51.908;7.730;2023-07-31T14:22:12;0.77;;;0.77;;
13708;SDS011;54933;51.908;7.730;2023-07-31T14:24:38;0.60;;;0.60;;
13708;SDS011;54933;51.908;7.730;2023-07-31T14:27:03;0.60;;;0.60;;
13708;SDS011;54933;51.908;7.730;2023-07-31T14:29:29;0.77;;;0.70;;
13708;SDS011;54933;51.908;7.730;2023-07-31T14:31:54;0.50;;;0.50;;
13708;SDS011;54933;51.908;7.730;2023-07-31T14:34:20;0.70;;;0.70;;
13708;SDS011;54933;51.908;7.730;2023-07-31T14:36:45;0.53;;;0.53;;
13708;SDS011;54933;51.908;7.730;2023-07-31T14:39:11;0.40;;;0.40;;
13708;SDS011;54933;51.908;7.730;2023-07-31T14:41:36;0.60;;;0.60;;
13708;SDS011;54933;51.908;7.730;2023-07-31T14:44:01;0.67;;;0.67;;
13708;SDS011;54933;51.908;7.730;2023-07-31T14:46:27;0.60;;;0.60;;
13708;SDS011;54933;51.908;7.730;2023-07-31T14:48:52;0.60;;;0.60;;
13708;SDS011;54933;51.908;7.730;2023-07-31T14:51:17;0.60;;;0.60;;